createdAt,value
2018-11-27T00:01:25.122Z,99.90
2018-11-27T00:04:00.534Z,99.90
2018-11-27T00:06:35.986Z,99.90
2018-11-27T00:09:11.688Z,99.90
2018-11-27T00:11:47.551Z,99.90
2018-11-27T00:14:23.522Z,99.90
2018-11-27T00:16:59.298Z,99.90
2018-11-27T00:19:35.032Z,99.90
2018-11-27T00:22:10.736Z,99.90
2018-11-27T00:24:46.412Z,99.90
2018-11-27T00:27:22.278Z,99.90
2018-11-27T00:29:58.479Z,99.90
2018-11-27T00:32:34.112Z,99.90
2018-11-27T00:35:11.035Z,99.90
2018-11-27T00:37:46.718Z,99.90
2018-11-27T00:40:23.918Z,99.90
2018-11-27T00:43:00.167Z,99.90
2018-11-27T00:45:36.070Z,99.90
2018-11-27T00:48:11.803Z,99.90
2018-11-27T00:50:47.582Z,99.90
2018-11-27T00:53:23.370Z,99.90
2018-11-27T00:55:59.518Z,99.90
2018-11-27T00:58:35.099Z,99.90
2018-11-27T01:01:10.874Z,99.90
2018-11-27T01:03:46.866Z,99.90
2018-11-27T01:06:22.633Z,99.90
2018-11-27T01:08:58.736Z,99.90
2018-11-27T01:11:34.385Z,99.90
2018-11-27T01:14:10.242Z,99.90
2018-11-27T01:16:45.906Z,99.90
2018-11-27T01:19:21.914Z,99.90
2018-11-27T01:21:58.574Z,99.90
2018-11-27T01:24:34.468Z,99.90
2018-11-27T01:27:10.318Z,99.90
2018-11-27T01:29:46.218Z,99.90
2018-11-27T01:32:21.759Z,99.90
2018-11-27T01:34:57.787Z,99.90
2018-11-27T01:37:33.610Z,99.90
2018-11-27T01:40:17.195Z,99.90
2018-11-27T01:42:55.908Z,99.90
2018-11-27T01:45:35.128Z,99.90
2018-11-27T01:48:11.054Z,99.90
2018-11-27T01:50:47.619Z,99.90
2018-11-27T01:53:23.434Z,99.90
2018-11-27T01:55:59.118Z,99.90
2018-11-27T01:58:35.046Z,99.90
2018-11-27T02:01:11.110Z,99.90
2018-11-27T02:03:47.709Z,99.90
2018-11-27T02:06:24.648Z,99.90
2018-11-27T02:09:00.506Z,99.90
2018-11-27T02:11:36.567Z,99.90
2018-11-27T02:14:13.176Z,99.90
2018-11-27T02:16:49.195Z,99.90
2018-11-27T02:19:24.983Z,99.90
2018-11-27T02:22:00.880Z,99.90
2018-11-27T02:24:36.699Z,99.90
2018-11-27T02:27:14.416Z,99.90
2018-11-27T02:29:50.295Z,99.90
2018-11-27T02:32:26.273Z,99.90
2018-11-27T02:35:02.112Z,99.90
2018-11-27T02:37:37.923Z,99.90
2018-11-27T02:40:15.543Z,99.90
2018-11-27T02:42:51.437Z,99.90
2018-11-27T02:45:27.295Z,99.90
2018-11-27T02:48:02.939Z,99.90
2018-11-27T02:50:38.797Z,99.90
2018-11-27T02:53:14.846Z,99.90
2018-11-27T02:55:51.174Z,99.90
2018-11-27T02:58:26.926Z,99.90
2018-11-27T03:01:02.631Z,99.90
2018-11-27T03:03:38.550Z,99.90
2018-11-27T03:06:15.639Z,99.90
2018-11-27T03:08:52.015Z,99.90
2018-11-27T03:11:27.681Z,99.90
2018-11-27T03:14:03.821Z,99.90
2018-11-27T03:16:39.364Z,99.90
2018-11-27T03:19:15.115Z,99.90
2018-11-27T03:21:51.062Z,99.90
2018-11-27T03:24:26.838Z,99.90
2018-11-27T03:27:02.479Z,99.90
2018-11-27T03:29:38.313Z,99.90
2018-11-27T03:32:15.036Z,99.90
2018-11-27T03:34:51.301Z,99.90
2018-11-27T03:37:27.532Z,99.90
2018-11-27T03:40:04.834Z,99.90
2018-11-27T03:42:41.214Z,99.90
2018-11-27T03:45:18.067Z,99.90
2018-11-27T03:47:54.425Z,99.90
2018-11-27T03:50:31.065Z,99.90
2018-11-27T03:53:06.723Z,99.90
2018-11-27T03:55:42.408Z,99.90
2018-11-27T03:58:18.138Z,99.90
2018-11-27T04:00:54.086Z,99.90
2018-11-27T04:03:29.738Z,99.90
2018-11-27T04:06:05.929Z,99.90
2018-11-27T04:08:41.594Z,99.90
2018-11-27T04:11:18.566Z,99.90
2018-11-27T04:13:54.121Z,99.90
2018-11-27T04:16:29.804Z,99.90
2018-11-27T04:19:05.883Z,99.90
2018-11-27T04:21:42.365Z,99.90
2018-11-27T04:24:18.248Z,99.90
2018-11-27T04:26:54.013Z,99.90
2018-11-27T04:29:29.727Z,99.90
2018-11-27T04:32:05.807Z,99.90
2018-11-27T04:34:42.263Z,99.90
2018-11-27T04:37:18.149Z,99.90
2018-11-27T04:39:53.971Z,99.90
2018-11-27T04:42:29.634Z,99.90
2018-11-27T04:45:08.398Z,99.90
2018-11-27T04:47:44.263Z,99.90
2018-11-27T04:50:20.437Z,99.90
2018-11-27T04:52:56.087Z,99.90
2018-11-27T04:55:32.075Z,99.90
2018-11-27T04:58:07.845Z,99.90
2018-11-27T05:00:43.530Z,99.90
2018-11-27T05:03:19.599Z,99.90
2018-11-27T05:05:55.571Z,99.90
2018-11-27T05:08:32.111Z,99.90
2018-11-27T05:11:07.890Z,99.90
2018-11-27T05:13:43.898Z,99.90
2018-11-27T05:16:19.514Z,99.90
2018-11-27T05:18:56.294Z,99.90
2018-11-27T05:21:32.351Z,99.90
2018-11-27T05:24:08.290Z,99.90
2018-11-27T05:26:44.113Z,99.90
2018-11-27T05:29:20.020Z,99.90
2018-11-27T05:31:56.808Z,99.90
2018-11-27T05:34:32.670Z,99.90
2018-11-27T05:37:08.466Z,99.90
2018-11-27T05:39:44.150Z,99.90
2018-11-27T05:42:20.029Z,99.90
2018-11-27T05:44:56.625Z,99.90
2018-11-27T05:47:32.363Z,99.90
2018-11-27T05:50:09.916Z,99.90
2018-11-27T05:52:46.886Z,99.90
2018-11-27T05:55:22.734Z,99.90
2018-11-27T05:57:58.743Z,99.90
2018-11-27T06:00:34.404Z,99.90
2018-11-27T06:03:10.306Z,99.90
2018-11-27T06:05:46.097Z,99.90
2018-11-27T06:08:21.873Z,99.90
2018-11-27T06:10:57.555Z,99.90
2018-11-27T06:13:33.295Z,99.90
2018-11-27T06:16:09.158Z,99.90
2018-11-27T06:18:45.002Z,99.90
2018-11-27T06:21:20.854Z,99.90
2018-11-27T06:23:56.417Z,99.90
2018-11-27T06:26:32.115Z,99.90
2018-11-27T06:29:07.778Z,99.90
2018-11-27T06:31:43.454Z,99.90
2018-11-27T06:34:19.187Z,99.90
2018-11-27T06:36:54.957Z,99.90
2018-11-27T06:39:30.678Z,99.90
2018-11-27T06:42:06.869Z,99.90
2018-11-27T06:44:43.595Z,99.90
2018-11-27T06:47:19.322Z,99.90
2018-11-27T06:49:55.015Z,99.90
2018-11-27T06:52:30.811Z,99.90
2018-11-27T06:55:09.027Z,99.90
2018-11-27T06:57:45.238Z,99.90
2018-11-27T07:00:22.190Z,99.90
2018-11-27T07:03:00.018Z,99.90
2018-11-27T07:05:35.594Z,99.90
2018-11-27T07:08:11.342Z,99.90
2018-11-27T07:10:47.959Z,99.90
2018-11-27T07:13:24.909Z,99.90
2018-11-27T07:16:00.590Z,99.90
2018-11-27T07:18:36.268Z,99.90
2018-11-27T07:21:12.051Z,99.90
2018-11-27T07:23:51.034Z,99.90
2018-11-27T07:26:26.960Z,99.90
2018-11-27T07:29:02.609Z,99.90
2018-11-27T07:31:38.566Z,99.90
2018-11-27T07:34:14.344Z,99.90
2018-11-27T07:36:50.042Z,99.90
2018-11-27T07:39:25.752Z,99.90
2018-11-27T07:42:02.021Z,99.90
2018-11-27T07:44:38.315Z,99.90
2018-11-27T07:47:13.994Z,99.90
2018-11-27T07:49:50.739Z,99.90
2018-11-27T07:52:26.352Z,99.90
2018-11-27T07:55:02.208Z,99.90
2018-11-27T07:57:38.053Z,99.90
2018-11-27T08:00:17.736Z,99.90
2018-11-27T08:02:57.429Z,99.90
2018-11-27T08:05:36.529Z,99.90
2018-11-27T08:08:14.553Z,99.90
2018-11-27T08:10:50.814Z,99.90
2018-11-27T08:13:26.946Z,99.90
2018-11-27T08:16:02.570Z,99.90
2018-11-27T08:18:38.075Z,99.90
2018-11-27T08:21:13.866Z,99.90
2018-11-27T08:23:50.094Z,99.90
2018-11-27T08:26:25.914Z,99.90
2018-11-27T08:29:02.495Z,99.90
2018-11-27T08:31:38.146Z,99.90
2018-11-27T08:34:13.994Z,99.90
2018-11-27T08:36:50.721Z,99.90
2018-11-27T08:39:25.002Z,99.90
2018-11-27T08:42:01.164Z,99.90
2018-11-27T08:44:37.680Z,99.90
2018-11-27T08:47:13.453Z,99.90
2018-11-27T08:49:49.254Z,99.90
2018-11-27T08:52:25.887Z,99.90
2018-11-27T08:56:26.058Z,99.90
2018-11-27T08:59:02.265Z,99.90
2018-11-27T09:01:38.120Z,99.90
2018-11-27T09:04:13.851Z,99.90
2018-11-27T09:06:49.574Z,99.90
2018-11-27T09:09:25.583Z,99.90
2018-11-27T09:12:01.220Z,99.90
2018-11-27T09:14:36.788Z,99.90
2018-11-27T09:17:13.163Z,99.90
2018-11-27T09:19:49.325Z,99.90
2018-11-27T09:22:25.087Z,99.90
2018-11-27T09:25:01.251Z,99.90
2018-11-27T09:27:37.138Z,99.90
2018-11-27T09:30:19.177Z,99.90
2018-11-27T09:32:55.768Z,99.90
2018-11-27T09:35:31.765Z,99.90
2018-11-27T09:38:07.967Z,99.90
2018-11-27T09:40:45.451Z,99.90
2018-11-27T09:43:22.035Z,99.80
2018-11-27T09:45:57.851Z,99.90
2018-11-27T09:48:33.511Z,99.90
2018-11-27T09:51:09.330Z,99.40
2018-11-27T09:53:45.133Z,99.60
2018-11-27T09:56:21.194Z,99.50
2018-11-27T09:58:57.946Z,99.50
2018-11-27T10:01:33.750Z,99.40
2018-11-27T10:04:09.581Z,99.30
2018-11-27T10:06:45.459Z,98.90
2018-11-27T10:10:45.619Z,99.00
2018-11-27T10:13:21.577Z,99.20
2018-11-27T10:15:57.335Z,99.20
2018-11-27T10:18:33.124Z,99.30
2018-11-27T10:21:08.976Z,99.50
2018-11-27T10:23:44.935Z,99.50
2018-11-27T10:26:20.606Z,99.50
2018-11-27T10:28:56.359Z,99.50
2018-11-27T10:31:32.066Z,99.40
2018-11-27T10:34:07.798Z,99.30
2018-11-27T10:36:43.785Z,99.40
2018-11-27T10:39:19.714Z,99.00
2018-11-27T10:41:55.592Z,98.80
2018-11-27T10:44:31.247Z,98.90
2018-11-27T10:47:07.015Z,98.90
2018-11-27T10:49:44.039Z,98.70
2018-11-27T10:52:20.719Z,98.70
2018-11-27T10:54:57.204Z,98.60
2018-11-27T10:57:32.945Z,98.40
2018-11-27T11:00:18.563Z,98.70
2018-11-27T11:03:00.452Z,98.60
2018-11-27T11:05:37.394Z,99.00
2018-11-27T11:08:13.494Z,99.20
2018-11-27T11:10:49.684Z,99.10
2018-11-27T11:13:26.327Z,99.10
2018-11-27T11:16:02.035Z,99.10
2018-11-27T11:18:38.047Z,99.00
2018-11-27T11:21:14.360Z,99.20
2018-11-27T11:23:50.174Z,99.30
2018-11-27T11:26:26.719Z,99.30
2018-11-27T11:29:02.309Z,99.30
2018-11-27T11:31:38.045Z,99.70
2018-11-27T11:34:13.760Z,99.50
2018-11-27T11:36:49.682Z,99.60
2018-11-27T11:39:25.600Z,99.50
2018-11-27T11:42:01.648Z,99.40
2018-11-27T11:44:38.368Z,99.30
2018-11-27T11:47:13.993Z,99.00
2018-11-27T11:49:49.722Z,99.00
2018-11-27T11:52:25.607Z,98.90
2018-11-27T11:55:01.355Z,99.00
2018-11-27T11:57:37.096Z,98.80
2018-11-27T12:00:14.273Z,98.80
2018-11-27T12:02:50.735Z,98.80
2018-11-27T12:05:26.619Z,98.80
2018-11-27T12:08:02.523Z,98.80
2018-11-27T12:10:38.888Z,99.00
2018-11-27T12:13:15.997Z,98.80
2018-11-27T12:15:52.550Z,98.80
2018-11-27T12:18:28.548Z,98.70
2018-11-27T12:21:04.206Z,98.60
2018-11-27T12:23:40.048Z,98.40
2018-11-27T12:26:15.828Z,98.30
2018-11-27T12:28:51.659Z,98.40
2018-11-27T12:31:27.383Z,98.20
2018-11-27T12:34:02.983Z,98.40
2018-11-27T12:36:38.698Z,98.70
2018-11-27T12:39:14.599Z,98.80
2018-11-27T12:41:50.278Z,98.80
2018-11-27T12:44:27.082Z,98.70
2018-11-27T12:47:03.111Z,98.60
2018-11-27T12:49:39.828Z,98.30
2018-11-27T12:52:15.687Z,98.60
2018-11-27T12:54:51.470Z,98.60
2018-11-27T12:57:27.138Z,98.90
2018-11-27T13:00:03.448Z,99.00
2018-11-27T13:02:39.703Z,99.10
2018-11-27T13:05:17.716Z,99.00
2018-11-27T13:07:56.124Z,99.00
2018-11-27T13:10:32.018Z,99.20
2018-11-27T13:13:07.668Z,99.10
2018-11-27T13:15:44.270Z,99.20
2018-11-27T13:18:20.324Z,99.30
2018-11-27T13:20:56.060Z,99.30
2018-11-27T13:23:32.112Z,99.50
2018-11-27T13:26:08.558Z,99.40
2018-11-27T13:28:44.219Z,99.60
2018-11-27T13:31:23.051Z,99.60
2018-11-27T13:34:08.043Z,99.60
2018-11-27T13:36:43.821Z,99.60
2018-11-27T13:39:31.623Z,99.70
2018-11-27T13:42:07.905Z,99.60
2018-11-27T13:44:44.355Z,99.70
2018-11-27T13:47:20.116Z,99.90
2018-11-27T13:49:55.851Z,99.90
2018-11-27T13:52:31.737Z,99.80
2018-11-27T13:55:11.860Z,99.90
2018-11-27T13:57:48.290Z,99.90
2018-11-27T14:00:24.000Z,99.90
2018-11-27T14:02:59.622Z,99.90
2018-11-27T14:05:35.391Z,99.90
2018-11-27T14:08:11.672Z,99.90
2018-11-27T14:10:48.025Z,99.90
2018-11-27T14:13:23.944Z,99.90
2018-11-27T14:15:59.595Z,99.90
2018-11-27T14:18:35.583Z,99.90
2018-11-27T14:21:11.369Z,99.90
2018-11-27T14:23:47.027Z,99.90
2018-11-27T14:26:22.663Z,99.90
2018-11-27T14:28:58.436Z,99.90
2018-11-27T14:31:34.332Z,99.90
2018-11-27T14:34:10.185Z,99.90
2018-11-27T14:36:46.031Z,99.90
2018-11-27T14:39:21.688Z,99.90
2018-11-27T14:41:57.278Z,99.90
2018-11-27T14:44:32.968Z,99.90
2018-11-27T14:47:08.537Z,99.90
2018-11-27T14:49:44.376Z,99.90
2018-11-27T14:52:20.231Z,99.90
2018-11-27T14:54:55.901Z,99.80
2018-11-27T14:57:31.639Z,99.90
2018-11-27T15:00:19.554Z,99.90
2018-11-27T15:02:55.687Z,99.90
2018-11-27T15:05:34.363Z,99.90
2018-11-27T15:08:11.289Z,99.90
2018-11-27T15:10:47.754Z,99.90
2018-11-27T15:13:23.715Z,99.90
2018-11-27T15:15:59.819Z,99.90
2018-11-27T15:18:35.921Z,99.90
2018-11-27T15:21:12.595Z,99.90
2018-11-27T15:23:48.179Z,99.90
2018-11-27T15:26:23.871Z,99.90
2018-11-27T15:28:59.679Z,99.90
2018-11-27T15:31:35.824Z,99.90
2018-11-27T15:34:12.593Z,99.90
2018-11-27T15:36:48.591Z,99.90
2018-11-27T15:39:24.307Z,99.90
2018-11-27T15:42:00.086Z,99.90
2018-11-27T15:44:35.749Z,99.90
2018-11-27T15:47:11.788Z,99.90
2018-11-27T15:49:49.444Z,99.90
2018-11-27T15:52:25.218Z,99.90
2018-11-27T15:55:00.967Z,99.90
2018-11-27T15:57:36.750Z,99.90
2018-11-27T16:00:13.662Z,99.90
2018-11-27T16:02:49.246Z,99.90
2018-11-27T16:05:25.147Z,99.90
2018-11-27T16:08:01.015Z,99.90
2018-11-27T16:10:37.810Z,99.90
2018-11-27T16:13:14.336Z,99.90
2018-11-27T16:15:50.039Z,99.90
2018-11-27T16:18:25.821Z,99.90
2018-11-27T16:21:01.674Z,99.90
2018-11-27T16:23:37.248Z,99.90
2018-11-27T16:26:13.189Z,99.90
2018-11-27T16:28:48.954Z,99.90
2018-11-27T16:31:26.340Z,99.90
2018-11-27T16:34:03.287Z,99.90
2018-11-27T16:36:39.282Z,99.90
2018-11-27T16:39:14.976Z,99.90
2018-11-27T16:41:50.742Z,99.90
2018-11-27T16:44:26.483Z,99.90
2018-11-27T16:47:02.265Z,99.90
2018-11-27T16:49:38.031Z,99.90
2018-11-27T16:52:13.938Z,99.90
2018-11-27T16:54:49.879Z,99.90
2018-11-27T16:57:26.460Z,99.90
2018-11-27T17:00:03.351Z,99.90
2018-11-27T17:02:39.930Z,99.90
2018-11-27T17:05:15.594Z,99.90
2018-11-27T17:07:51.220Z,99.90
2018-11-27T17:10:27.008Z,99.90
2018-11-27T17:13:04.236Z,99.90
2018-11-27T17:15:39.869Z,99.90
2018-11-27T17:18:15.664Z,99.90
2018-11-27T17:20:51.628Z,99.90
2018-11-27T17:23:27.448Z,99.90
2018-11-27T17:26:04.123Z,99.90
2018-11-27T17:28:39.121Z,99.90
2018-11-27T17:31:15.717Z,99.90
2018-11-27T17:34:11.424Z,99.90
2018-11-27T17:36:47.651Z,99.90
2018-11-27T17:39:23.404Z,99.90
2018-11-27T17:41:58.939Z,99.90
2018-11-27T17:44:34.594Z,99.90
2018-11-27T17:47:10.124Z,99.90
2018-11-27T17:49:45.894Z,99.90
2018-11-27T17:52:21.730Z,99.90
2018-11-27T17:54:57.501Z,99.90
2018-11-27T17:57:33.250Z,99.90
2018-11-27T18:00:13.275Z,99.90
2018-11-27T18:02:52.302Z,99.90
2018-11-27T18:05:28.510Z,99.90
2018-11-27T18:08:04.778Z,99.90
2018-11-27T18:10:40.969Z,99.90
2018-11-27T18:13:16.773Z,99.90
2018-11-27T18:15:52.818Z,99.90
2018-11-27T18:18:29.776Z,99.90
2018-11-27T18:21:07.302Z,99.90
2018-11-27T18:23:43.900Z,99.90
2018-11-27T18:26:19.885Z,99.90
2018-11-27T18:28:56.360Z,99.90
2018-11-27T18:31:32.116Z,99.90
2018-11-27T18:34:07.995Z,99.90
2018-11-27T18:36:43.874Z,99.90
2018-11-27T18:39:19.729Z,99.90
2018-11-27T18:41:55.375Z,99.90
2018-11-27T18:44:31.243Z,99.90
2018-11-27T18:47:07.017Z,99.90
2018-11-27T18:49:42.739Z,99.90
2018-11-27T18:52:18.328Z,99.90
2018-11-27T18:54:53.998Z,99.90
2018-11-27T18:57:29.727Z,99.90
2018-11-27T19:00:11.158Z,99.90
2018-11-27T19:02:47.370Z,99.90
2018-11-27T19:05:25.047Z,99.90
2018-11-27T19:08:00.783Z,99.90
2018-11-27T19:10:36.417Z,99.90
2018-11-27T19:13:12.058Z,99.90
2018-11-27T19:15:49.524Z,99.90
2018-11-27T19:18:25.899Z,99.90
2018-11-27T19:21:02.257Z,99.90
2018-11-27T19:23:38.462Z,99.90
2018-11-27T19:26:14.948Z,99.90
2018-11-27T19:28:50.803Z,99.90
2018-11-27T19:31:26.432Z,99.90
2018-11-27T19:34:02.223Z,99.90
2018-11-27T19:36:39.016Z,99.90
2018-11-27T19:39:15.190Z,99.90
2018-11-27T19:41:51.667Z,99.90
2018-11-27T19:44:28.474Z,99.90
2018-11-27T19:47:04.848Z,99.90
2018-11-27T19:49:41.139Z,99.90
2018-11-27T19:52:17.571Z,99.90
2018-11-27T19:54:53.984Z,99.90
2018-11-27T19:57:30.510Z,99.90
2018-11-27T20:00:15.362Z,99.90
2018-11-27T20:02:51.610Z,99.90
2018-11-27T20:05:29.202Z,99.90
2018-11-27T20:08:05.807Z,99.90
2018-11-27T20:10:42.104Z,99.90
2018-11-27T20:13:18.111Z,99.90
2018-11-27T20:15:53.751Z,99.90
2018-11-27T20:18:29.703Z,99.90
2018-11-27T20:21:06.242Z,99.90
2018-11-27T20:23:42.453Z,99.90
2018-11-27T20:26:18.111Z,99.90
2018-11-27T20:28:53.967Z,99.90
2018-11-27T20:31:30.002Z,99.90
2018-11-27T20:34:06.712Z,99.90
2018-11-27T20:36:42.333Z,99.90
2018-11-27T20:39:17.916Z,99.90
2018-11-27T20:41:53.617Z,99.90
2018-11-27T20:44:30.418Z,99.90
2018-11-27T20:47:07.504Z,99.90
2018-11-27T20:49:42.265Z,99.90
2018-11-27T20:52:18.294Z,99.90
2018-11-27T20:54:54.821Z,99.90
2018-11-27T20:57:30.484Z,99.90
2018-11-27T21:00:18.807Z,99.90
2018-11-27T21:02:57.679Z,99.90
2018-11-27T21:05:34.669Z,99.90
2018-11-27T21:08:11.027Z,99.90
2018-11-27T21:10:46.851Z,99.90
2018-11-27T21:13:22.671Z,99.90
2018-11-27T21:15:58.973Z,99.90
2018-11-27T21:18:35.070Z,99.90
2018-11-27T21:21:11.072Z,99.90
2018-11-27T21:23:47.014Z,99.90
2018-11-27T21:26:33.570Z,99.90
2018-11-27T21:29:09.431Z,99.90
2018-11-27T21:31:46.367Z,99.90
2018-11-27T21:34:22.998Z,99.90
2018-11-27T21:36:59.014Z,99.90
2018-11-27T21:39:35.503Z,99.90
2018-11-27T21:42:11.407Z,99.90
2018-11-27T21:44:47.181Z,99.90
2018-11-27T21:47:23.054Z,99.90
2018-11-27T21:49:58.891Z,99.90
2018-11-27T21:52:34.646Z,99.90
2018-11-27T21:55:12.928Z,99.90
2018-11-27T21:57:49.119Z,99.90
2018-11-27T22:00:25.955Z,99.90
2018-11-27T22:03:01.647Z,99.90
2018-11-27T22:05:37.257Z,99.90
2018-11-27T22:08:12.881Z,99.90
2018-11-27T22:10:48.698Z,99.90
2018-11-27T22:13:24.277Z,99.90
2018-11-27T22:15:59.994Z,99.90
2018-11-27T22:18:35.998Z,99.90
2018-11-27T22:21:12.434Z,99.90
2018-11-27T22:23:48.387Z,99.90
2018-11-27T22:26:24.357Z,99.90
2018-11-27T22:29:02.157Z,99.90
2018-11-27T22:31:38.474Z,99.90
2018-11-27T22:34:14.331Z,99.90
2018-11-27T22:36:50.308Z,99.90
2018-11-27T22:39:26.034Z,99.90
2018-11-27T22:42:01.651Z,99.90
2018-11-27T22:44:37.566Z,99.90
2018-11-27T22:47:13.328Z,99.90
2018-11-27T22:49:49.158Z,99.90
2018-11-27T22:52:24.919Z,99.90
2018-11-27T22:56:25.210Z,99.90
2018-11-27T22:59:00.994Z,99.90
2018-11-27T23:01:38.887Z,99.90
2018-11-27T23:04:14.545Z,99.90
2018-11-27T23:06:50.335Z,99.90
2018-11-27T23:09:26.232Z,99.90
2018-11-27T23:12:02.019Z,99.90
2018-11-27T23:14:37.749Z,99.90
2018-11-27T23:17:13.729Z,99.90
2018-11-27T23:19:50.782Z,99.90
2018-11-27T23:22:26.420Z,99.90
2018-11-27T23:25:02.204Z,99.90
2018-11-27T23:27:38.002Z,99.90
2018-11-27T23:30:17.815Z,99.90
2018-11-27T23:32:53.408Z,99.90
2018-11-27T23:35:29.311Z,99.90
2018-11-27T23:38:05.042Z,99.90
2018-11-27T23:40:41.368Z,99.90
2018-11-27T23:43:17.558Z,99.90
2018-11-27T23:45:54.080Z,99.90
2018-11-27T23:48:29.631Z,99.90
2018-11-27T23:51:06.235Z,99.90
2018-11-27T23:53:42.232Z,99.90
2018-11-27T23:56:17.897Z,99.90
2018-11-27T23:58:53.731Z,99.90
